EXS9AR LGSK-EGNM
Flight info
| Callsign | EXS9AR |
|---|---|
| Flight time | N/A |
| Altitude | 40000 |
| Route | IBIDI UL617 AMSIV DCT MAKED DCT LONTA UL608 DOLEV DCT RENKA DCT GASKA DCT MASEK DCT OTMEC DCT PAM DCT RAVLO Y70 BATLI DCT LBA |
| Aircraft | B738/M-SDE2E3FGHIRWXY/LB1 |
Departure
| Time | 2026-05-05 13:51 |
|---|---|
| Airport | Skiathos Island National Airport (LGSK) |
Arrival
| Time | N/A |
|---|---|
| Airport | Leeds Bradford Airport (EGNM) |
| Time | Latitude | Longitude | Altitude | Speed | Heading |
|---|---|---|---|---|---|
| 2026-05-05 13:44 | 39.17957 | 23.50357 | 37 ft | 1 kts | 199° |
| 2026-05-05 13:44 | 39.17959 | 23.50358 | 37 ft | 0 kts | 199° |
| 2026-05-05 13:46 | 39.17957 | 23.50358 | 37 ft | 1 kts | 198° |
| 2026-05-05 13:46 | 39.17910 | 23.50338 | 38 ft | 14 kts | 198° |
| 2026-05-05 13:46 | 39.17779 | 23.50279 | 38 ft | 20 kts | 199° |
| 2026-05-05 13:47 | 39.17696 | 23.50330 | 39 ft | 13 kts | 111° |
| 2026-05-05 13:47 | 39.17661 | 23.50344 | 41 ft | 4 kts | 192° |
| 2026-05-05 13:47 | 39.17623 | 23.50329 | 41 ft | 10 kts | 199° |
| 2026-05-05 13:47 | 39.17527 | 23.50287 | 39 ft | 18 kts | 199° |
| 2026-05-05 13:48 | 39.17407 | 23.50234 | 36 ft | 19 kts | 199° |
| 2026-05-05 13:48 | 39.17270 | 23.50175 | 30 ft | 23 kts | 199° |
| 2026-05-05 13:48 | 39.17126 | 23.50108 | 19 ft | 17 kts | 198° |
| 2026-05-05 13:48 | 39.17040 | 23.50094 | 13 ft | 10 kts | 172° |
| 2026-05-05 13:49 | 39.17006 | 23.50088 | 10 ft | 2 kts | 232° |
| 2026-05-05 13:49 | 39.17023 | 23.50054 | 11 ft | 8 kts | 343° |
| 2026-05-05 13:49 | 39.17053 | 23.50073 | 14 ft | 0 kts | 21° |
| 2026-05-05 13:50 | 39.17096 | 23.50093 | 18 ft | 35 kts | 19° |
| 2026-05-05 13:51 | 39.17618 | 23.50326 | 41 ft | 121 kts | 19° |
| 2026-05-05 13:51 | 39.18592 | 23.50767 | 388 ft | 163 kts | 20° |
| 2026-05-05 13:51 | 39.19693 | 23.51259 | 1283 ft | 171 kts | 18° |
| 2026-05-05 13:51 | 39.20903 | 23.51787 | 2034 ft | 194 kts | 17° |
| 2026-05-05 13:52 | 39.22202 | 23.52357 | 2812 ft | 200 kts | 16° |
| 2026-05-05 13:52 | 39.23510 | 23.52933 | 3518 ft | 203 kts | 16° |
| 2026-05-05 13:52 | 39.24855 | 23.53526 | 4197 ft | 209 kts | 16° |
| 2026-05-05 13:52 | 39.26308 | 23.54170 | 4476 ft | 234 kts | 19° |
| 2026-05-05 13:53 | 39.27683 | 23.55475 | 4773 ft | 262 kts | 53° |
| 2026-05-05 13:53 | 39.28190 | 23.57770 | 5397 ft | 278 kts | 90° |
| 2026-05-05 13:53 | 39.27720 | 23.60215 | 6308 ft | 284 kts | 107° |
| 2026-05-05 13:53 | 39.26767 | 23.62445 | 7272 ft | 289 kts | 133° |
| 2026-05-05 13:54 | 39.25044 | 23.63755 | 8212 ft | 294 kts | 166° |
| 2026-05-05 13:54 | 39.23003 | 23.63794 | 9119 ft | 297 kts | 190° |
| 2026-05-05 13:54 | 39.20999 | 23.63104 | 9998 ft | 301 kts | 201° |
| 2026-05-05 13:54 | 39.19227 | 23.61687 | 10730 ft | 303 kts | 231° |
| 2026-05-05 13:55 | 39.18215 | 23.59357 | 11628 ft | 300 kts | 254° |
| 2026-05-05 13:55 | 39.17968 | 23.56722 | 12409 ft | 295 kts | 281° |
| 2026-05-05 13:55 | 39.18733 | 23.54341 | 13278 ft | 287 kts | 313° |
| 2026-05-05 13:55 | 39.20335 | 23.52911 | 14140 ft | 281 kts | 343° |
| 2026-05-05 13:56 | 39.22237 | 23.52360 | 14869 ft | 285 kts | 352° |
| 2026-05-05 13:56 | 39.24242 | 23.52090 | 15454 ft | 294 kts | 355° |
| 2026-05-05 13:56 | 39.26296 | 23.51902 | 16208 ft | 297 kts | 356° |
| 2026-05-05 13:56 | 39.28360 | 23.51712 | 17027 ft | 298 kts | 355° |
| 2026-05-05 13:57 | 39.30438 | 23.51504 | 17828 ft | 300 kts | 355° |
| 2026-05-05 13:57 | 39.32528 | 23.51272 | 18552 ft | 304 kts | 353° |
| 2026-05-05 13:57 | 39.34656 | 23.50688 | 18753 ft | 324 kts | 343° |
| 2026-05-05 13:57 | 39.36872 | 23.49783 | 18913 ft | 343 kts | 342° |
| 2026-05-05 13:58 | 39.39178 | 23.48801 | 19296 ft | 354 kts | 342° |
| 2026-05-05 13:58 | 39.41531 | 23.47801 | 19937 ft | 356 kts | 342° |
| 2026-05-05 13:58 | 39.43887 | 23.46814 | 20679 ft | 356 kts | 342° |
| 2026-05-05 13:58 | 39.46248 | 23.45837 | 21381 ft | 357 kts | 342° |
| 2026-05-05 13:59 | 39.51005 | 23.43891 | 22669 ft | 361 kts | 342° |
| 2026-05-05 13:59 | 39.53405 | 23.42914 | 23298 ft | 363 kts | 342° |